DW7346 Weather Reports


Display with metric or nautical units.
time (UTC)temp
F
wind
direction
speed
MPH
gust
MPH
rain 1hr
in
rain 24hr
in
rain mn
in
humidity
%
barometer
mb
20260831121545 79 169 0.0 2.0 0.00 0.00 0.00 77 1012.5
20260831120043 80 167 0.0 3.0 0.00 0.00 0.00 77 1012.4
20260831114541 80 167 0.0 1.0 0.00 0.00 0.00 76 1012.3
20260831113039 80 174 0.0 2.0 0.00 0.00 0.00 75 1012.2
20260831111555 81 179 0.0 2.0 0.00 0.00 0.00 74 1012.0
20260831110043 81 193 0.0 3.0 0.00 0.00 0.00 73 1011.9
20260831104534 81 191 1.0 3.0 0.00 0.00 0.00 72 1011.8
20260831103029 82 160 0.0 3.0 0.00 0.00 0.00 71 1011.9
20260831101528 82 188 0.0 4.0 0.00 0.00 0.00 69 1011.8
20260831100025 83 181 0.0 4.0 0.00 0.00 0.00 68 1011.7
20260831094526 83 209 2.0 5.0 0.00 0.00 0.00 67 1011.6
20260831093020 84 185 1.0 6.0 0.00 0.00 0.00 66 1011.6
20260831091519 84 223 2.0 6.0 0.00 0.00 0.00 65 1011.5
20260831090018 84 195 3.0 7.0 0.00 0.00 0.00 64 1011.4
20260831084531 84 200 3.0 8.0 0.00 0.00 0.00 64 1011.4
20260831083014 85 210 2.0 6.0 0.00 0.00 0.00 63 1011.4
20260831081520 85 182 2.0 8.0 0.00 0.00 0.00 62 1011.5
20260831080011 85 238 3.0 8.0 0.00 0.00 0.00 60 1011.4
20260831074530 86 217 3.0 8.0 0.00 0.00 0.00 59 1011.3
20260831073020 86 224 3.0 9.0 0.00 0.00 0.00 58 1011.2
20260831071509 86 255 2.0 7.0 0.00 0.00 0.00 57 1011.1
20260831070009 86 234 2.0 5.0 0.00 0.00 0.00 58 1011.1
20260831064520 86 207 1.0 5.0 0.00 0.00 0.00 58 1011.2
20260831063014 85 179 0.0 2.0 0.00 0.00 0.00 58 1011.3
20260831061506 85 158 0.0 3.0 0.00 0.00 0.00 58 1011.2
20260831060004 85 122 0.0 0.0 0.00 0.00 0.00 59 1011.2
20260831054504 85 105 0.0 0.0 0.00 0.00 0.00 59 1011.3
20260831053007 85 105 0.0 1.0 0.00 0.00 0.00 59 1011.3
20260831051600 86 105 0.0 2.0 0.00 0.00 0.00 58 1011.1
20260831050137 86 105 0.0 0.0 0.00 0.00 0.00 57 1011.0
20260831044558 86 105 0.0 0.0 0.00 0.00 0.00 57 1011.0
20260831043055 87 105 0.0 0.0 0.00 0.00 0.00 56 1011.0
20260831041556 88 105 0.0 2.0 0.00 0.00 0.00 55 1010.9
20260831040055 88 105 0.0 1.0 0.00 0.00 0.00 54 1010.9
20260831034552 89 105 0.0 1.0 0.00 0.00 0.00 53 1010.9
20260831033051 90 105 0.0 3.0 0.00 0.00 0.00 51 1010.8
20260831031554 90 101 0.0 3.0 0.00 0.00 0.00 50 1010.7
20260831030054 91 124 1.0 4.0 0.00 0.00 0.00 50 1010.5
20260831024548 91 115 1.0 4.0 0.00 0.00 0.00 49 1010.4
20260831023046 91 103 0.0 0.0 0.00 0.00 0.00 49 1010.3
20260831021547 92 109 0.0 3.0 0.00 0.00 0.00 48 1010.1
20260831020045 92 106 0.0 4.0 0.00 0.00 0.00 47 1009.7
20260831014549 92 105 0.0 2.0 0.00 0.00 0.00 46 1009.5
20260831013044 93 113 0.0 3.0 0.00 0.00 0.00 44 1009.4
20260831011544 94 110 0.0 2.0 0.00 0.00 0.00 42 1009.2
20260831010043 95 148 0.0 1.0 0.00 0.00 0.00 41 1009.2
20260831004545 96 144 0.0 3.0 0.00 0.00 0.00 40 1009.1
20260831003041 97 124 0.0 5.0 0.00 0.00 0.00 39 1009.0
20260831001539 98 131 1.0 4.0 0.00 0.00 0.00 38 1009.1
20260831000052 99 148 1.0 7.0 0.00 0.00 0.00 37 1009.2
20260830234546 99 110 1.0 6.0 0.00 0.00 0.00 37 1009.3
20260830233053 100 189 1.0 7.0 0.00 0.00 0.00 35 1009.2
20260830231535 101 174 1.0 6.0 0.00 0.00 0.00 34 1009.2
20260830230034 101 94 2.0 7.0 0.00 0.00 0.00 34 1009.4
20260830224533 101 96 2.0 6.0 0.00 0.00 0.00 34 1009.4
20260830223032 102 88 2.0 6.0 0.00 0.00 0.00 34 1009.5
20260830221532 101 136 2.0 6.0 0.00 0.00 0.00 37 1009.5
20260830220052 101 224 1.0 6.0 0.00 0.00 0.00 36 1009.5
20260830214528 101 170 1.0 7.0 0.00 0.00 0.00 36 1009.6
20260830213029 101 139 1.0 6.0 0.00 0.00 0.00 37 1009.7
20260830211528 101 178 1.0 7.0 0.00 0.00 0.00 38 1009.8
20260830210025 101 116 2.0 10.0 0.00 0.00 0.00 38 1010.0
20260830204520 100 242 3.0 8.0 0.00 0.00 0.00 38 1010.2
20260830203019 101 190 4.0 11.0 0.00 0.00 0.00 37 1010.3
20260830201517 101 148 3.0 9.0 0.00 0.00 0.00 38 1010.6
20260830200018 101 167 3.0 8.0 0.00 0.00 0.00 39 1010.8
20260830194513 101 259 3.0 8.0 0.00 0.00 0.00 39 1011.0
20260830193010 100 219 1.0 9.0 0.00 0.00 0.00 41 1011.1
20260830191528 100 176 2.0 8.0 0.00 0.00 0.00 43 1011.3
20260830190006 99 253 2.0 9.0 0.00 0.00 0.00 42 1011.5
20260830184504 99 186 3.0 8.0 0.00 0.00 0.00 42 1011.7
20260830183100 98 103 2.0 10.0 0.00 0.00 0.00 46 1011.9
20260830181559 98 199 2.0 10.0 0.00 0.00 0.00 45 1012.1
20260830180057 97 220 3.0 13.0 0.00 0.00 0.00 46 1012.4
20260830174557 97 219 3.0 6.0 0.00 0.00 0.00 46 1012.6
20260830173051 96 293 2.0 10.0 0.00 0.00 0.00 50 1012.9
20260830171547 95 207 3.0 13.0 0.00 0.00 0.00 51 1013.0
20260830170045 95 275 5.0 11.0 0.00 0.00 0.00 51 1013.2
20260830164543 94 245 2.0 8.0 0.00 0.00 0.00 54 1013.4
20260830163042 93 183 3.0 6.0 0.00 0.00 0.00 57 1013.4
20260830161541 92 209 1.0 8.0 0.00 0.00 0.00 58 1013.6
20260830160040 91 219 2.0 9.0 0.00 0.00 0.00 61 1013.6
20260830154536 91 191 3.0 7.0 0.00 0.00 0.00 60 1013.6
20260830153031 89 188 3.0 7.0 0.00 0.00 0.00 63 1013.5
20260830151527 88 251 3.0 8.0 0.00 0.00 0.00 64 1013.6
20260830150025 87 187 2.0 9.0 0.00 0.00 0.00 66 1013.6
20260830144524 87 207 3.0 7.0 0.00 0.00 0.00 66 1013.5
20260830143021 86 212 1.0 6.0 0.00 0.00 0.00 68 1013.5
20260830141520 85 195 2.0 5.0 0.00 0.00 0.00 69 1013.5
20260830140020 84 193 1.0 4.0 0.00 0.00 0.00 72 1013.6
20260830134518 83 210 1.0 3.0 0.00 0.00 0.00 74 1013.5
20260830133016 81 125 0.0 2.0 0.00 0.00 0.00 76 1013.4
20260830131533 80 126 0.0 3.0 0.00 0.00 0.00 77 1013.4
20260830130014 79 111 0.0 3.0 0.00 0.00 0.00 78 1013.2
20260830124510 79 111 0.0 0.0 0.00 0.00 0.00 78 1012.9
20260830123010 79 111 0.0 0.0 0.00 0.00 0.00 77 1012.7